Tiempo atmosférico en la estación meteorológica de Monterrubio De La Demanda, Burgos (1190 m.)



Fecha
DESCASC
Temp. máxima en grados centígrados (hora)
DESCASC
Temp. mínima en grados centígrados (hora)
DESCASC
Temp. media en grados centígrados
DESCASC
Racha de viento máxima en m/sg (hora)
DESCASC
Velocidad máxima media en intervalos de 10 minutos(hora)
DESCASC
Precipitaciones diarias en mm
DESCASC
Precipitaciones de 00:00 a 06:00 en mm
DESCASC
Precipitaciones de 06:00 a 12:00 en mm
DESCASC
Precipitaciones de 12:00 a 18:00 en mm
DESCASC
Precipitaciones de 18:00 a 24:00 en mm
DESCASC
13-01-2021 3.8 (16:10) -5.2 (06:00) -0.7 10.56 (10:00) 8.33 (09:40) 4.6 0 0 4.6 0
12-01-2021 6.3 (16:00) -8.5 (06:20) -1.1 9.17 (01:20) 6.67 (01:20) 7.2 0 0 7.2 0
11-01-2021 -0.9 (15:00) -4.6 (23:59) -2.7 19.72 (02:20) 9.44 (00:20) 0.6 0 0.2 0.4 0
10-01-2021 -2.6 (15:40) -4.9 (00:00) -3.8 20.56 (22:50) 10.83 (22:50) 0 0 0 0 0
09-01-2021 -4.4 (22:00) -6 (-00:0) -5.2 9.72 (17:00) 6.94 (14:20) 0 0 0 0 0
08-01-2021 -3.7 (15:00) -8.6 (-00:0) -6.2 8.89 (05:30) 6.67 (05:40) 0 0 0 0 0
07-01-2021 -1.1 (15:50) -11 (-00:0) -6.1 7.78 (13:30) 5.83 (13:30) 0 0 0 0 0
06-01-2021 0.8 (15:40) -11.2 (-00:0) -5.2 5.83 (14:10) 3.89 (14:10) 3.6 0 0 3.6 0
05-01-2021 -0.1 (14:20) -9.5 (-00:0) -4.8 3.61 (16:00) 2.22 (16:40) 3.8 0 0 3.8 0
04-01-2021 -2.2 (16:00) -5.7 (-00:0) -3.9 8.33 (12:20) 6.11 (12:10) 0 0 0 0 0
03-01-2021 -1.8 (11:40) -3.7 (-00:0) -2.8 10.28 (19:50) 6.67 (19:50) 0 0 0 0 0
02-01-2021 -1.9 (13:00) -4.6 (-00:0) -3.2 14.72 (21:20) 7.5 (15:10) 0 0 0 0 0
01-01-2021 -0.2 (00:00) -4.1 (-00:0) -2.1 0 (00:10) 0 (00:10) 0 0 0 0 0
31-12-2020 0.7 (16:20) -1.5 (-00:0) -0.4 10.83 (18:20) 6.67 (14:20) 0 0 0 0 0
30-12-2020 0.2 (14:30) -3.5 (-00:0) -1.6 7.78 (14:10) 5.56 (14:30) 0.2 0 0 0.2 0
29-12-2020 0.6 (15:50) -2.4 (-00:0) -0.9 13.33 (06:10) 8.89 (06:40) 0.2 0 0 0.2 0
28-12-2020 2.9 (02:50) -1.5 (-00:0) 0.7 19.44 (02:40) 12.22 (12:40) 11.2 11.2 0 0 0
27-12-2020 2.4 (15:50) -5.8 (-00:0) -1.7 21.11 (23:30) 12.78 (19:30) 7.4 0 0 0 7.4
26-12-2020 2.2 (15:30) -4.1 (-00:0) -0.9 12.78 (14:00) 8.33 (14:50) 0.6 0 0 0.6 0
25-12-2020 1.9 (00:00) -1.4 (-00:0) 0.3 13.33 (11:30) 7.5 (11:30) 0.4 0.2 0 0.2 0
24-12-2020 5.5 (00:00) 1.2 (00:00) 3.4 8.06 (15:00) 5 (15:00) 0.4 0.2 0 0 0.2
23-12-2020 8.6 (06:30) 5.5 (00:00) 7.1 11.11 (10:30) 7.5 (12:30) 2 0 0 1.6 0.4
22-12-2020 14.2 (14:40) 5.5 (00:00) 9.8 8.33 (14:50) 5.28 (15:10) 0.2 0.2 0 0 0
21-12-2020 7.2 (16:40) 3.8 (00:00) 5.5 5.56 (03:30) 3.89 (01:30) 3.6 2.8 0.8 0 0
20-12-2020 5.7 (15:00) 2.4 (00:00) 4 7.5 (13:30) 5.56 (15:10) 0 0 0 0 0
19-12-2020 6.1 (13:10) 0.9 (00:00) 3.5 6.67 (06:20) 4.17 (05:10) 12.6 0.8 6.6 3.6 1.6
18-12-2020 8.2 (14:20) -3.9 (-00:0) 2.1 6.67 (14:00) 5.28 (14:30) 0.2 0 0.2 0 0
17-12-2020 7.3 (16:10) -1.7 (-00:0) 2.8 5 (13:50) 3.06 (13:10) 0.8 0.8 0 0 0

Gráficas

Temp. máximas Temp. mínimas Temp. medias Precipitaciones Rachas de viento máximas Velocidades máximas media en intervalos de 10 minutos

Datos horarios

Fecha y hora oficial Temperatura (ºC) Velocidad del viento (km/h) Dirección del viento Racha (km/h) Dirección de racha Precipitación (mm) Presión (hPa) Tendencia (hPa) Humedad (%)
2021-01-15 23:00:00 -0.4 10 Este 15 Este 0 -- -- 87
2021-01-15 22:00:00 -1.6 7 Sudeste 12 Sudeste 0 -- -- 90
2021-01-15 21:00:00 -1.4 3 Este 15 Norte 0 -- -- 83
2021-01-15 20:00:00 -0.5 8 Este 20 Nordeste 0 -- -- 79
2021-01-15 19:00:00 1.6 10 Este 23 Este 0 -- -- 75
2021-01-15 18:00:00 2.3 8 Este 26 Este 0 -- -- 70
2021-01-15 17:00:00 3.5 12 Nordeste 26 Nordeste 0 -- -- 67
2021-01-15 16:00:00 3.9 21 Nordeste 34 Este 0 -- -- 65
2021-01-15 15:00:00 3.8 17 Este 34 Nordeste 0 -- -- 65
2021-01-15 14:00:00 3.8 21 Este 40 Este 0 -- -- 65
2021-01-15 13:00:00 4.1 18 Este 37 Este 0 -- -- 60
2021-01-15 12:00:00 3.8 17 Sudeste 39 Este 0 -- -- 68
2021-01-15 11:00:00 2.9 5 Sur 18 Sudeste 0 -- -- 74
2021-01-15 10:00:00 2.7 9 Sur 20 Oeste 0 -- -- 76
2021-01-15 09:00:00 1.5 6 Nordeste 26 Sudeste 0 -- -- 76
2021-01-15 08:00:00 1.4 14 Nordeste 26 Este 0 -- -- 78
2021-01-15 07:00:00 1.8 10 Este 23 Este 0 -- -- 77
2021-01-15 06:00:00 1.3 14 Este 33 Este 0 -- -- 72
2021-01-15 05:00:00 1.6 18 Este 29 Este 0 -- -- 76
2021-01-15 04:00:00 1.7 11 Nordeste 18 Este 0 -- -- 77
2021-01-15 03:00:00 2.1 12 Nordeste 18 Nordeste 0 -- -- 73
2021-01-15 02:00:00 3.1 9 Nordeste 18 Este 0 -- -- 74
2021-01-15 01:00:00 3.5 6 Este 17 Nordeste 0 -- -- 76
2021-01-15 00:00:00 4.3 9 Este 25 Este 0 -- -- 77
2021-01-14 23:00:00 4.7 10 Este 32 Este 0 -- -- 77
2021-01-14 22:00:00 5.1 8 Norte 31 Sudeste 0 -- -- 77
2021-01-14 21:00:00 5.4 7 Nordeste 24 Nordeste 0 -- -- 80
2021-01-14 20:00:00 5.4 7 Nordeste 23 Norte 0 -- -- 80
2021-01-14 19:00:00 5.2 4 Norte 29 Sudoeste 0 -- -- 83
2021-01-14 18:00:00 5.3 6 Sur 21 Sudeste 0 -- -- 85
2021-01-14 17:00:00 5.3 14 Sudeste 40 Este 0 -- -- 83
2021-01-14 16:00:00 6.6 9 Este 54 Sudeste 0.2 -- -- 75
2021-01-14 15:00:00 7.9 17 Sudeste 43 Este 1.4 -- -- 38
2021-01-14 14:00:00 5.5 9 Este 19 Sudeste 0.6 -- -- 50
2021-01-14 13:00:00 3.2 12 Este 24 Este 0.4 -- -- 60
2021-01-14 12:00:00 1.6 14 Sudeste 24 Este 0.2 -- -- 59
2021-01-14 11:00:00 -0.1 7 Sudeste 13 Sudeste 0 -- -- 65
2021-01-14 10:00:00 -3.6 3 Sudeste 18 Sudeste 0 -- -- 79
2021-01-14 09:00:00 -4.3 12 Sudeste 26 Sudeste 0 -- -- 81
2021-01-14 08:00:00 -4.9 14 Sudeste 22 Sudeste 0 -- -- 87
2021-01-14 07:00:00 -4.2 13 Este 21 Este 0 -- -- 86
2021-01-14 06:00:00 -4.8 6 Este 16 Sudeste 0 -- -- 89
2021-01-14 05:00:00 -4.4 9 Este 12 Este 0 -- -- 89
2021-01-14 04:00:00 -4.5 7 Sudeste 15 Sudeste 0 -- -- 87
2021-01-14 03:00:00 -3.8 7 Este 12 Este 0 -- -- 91
2021-01-14 02:00:00 -4.1 4 Este 15 Este 0 -- -- 93
2021-01-14 01:00:00 -3.1 9 Sudeste 16 Sudeste 0 -- -- 94
2021-01-14 00:00:00 -2.4 9 Sudeste 15 Este 0 -- -- 95
2021-01-13 23:00:00 -2.4 6 Sudeste 16 Sudeste 0 -- -- 94
2021-01-13 22:00:00 -0.8 12 Este 26 Este 0 -- -- 93
2021-01-13 21:00:00 0 19 Este 25 Este 0 -- -- 92
2021-01-13 20:00:00 -0.8 11 Sudeste 21 Sudeste 0 -- -- 94
2021-01-13 19:00:00 0.3 16 Sudeste 25 Sudeste 0 -- -- 91
2021-01-13 18:00:00 2 12 Sudeste 21 Sudeste 0.4 -- -- 81
2021-01-13 17:00:00 3.7 15 Sudeste 23 Sudeste 1 -- -- 77
2021-01-13 16:00:00 3.7 16 Sudeste 24 Este 1 -- -- 76
2021-01-13 15:00:00 3 19 Sudeste 25 Sudeste 1.4 -- -- 79
2021-01-13 14:00:00 2 18 Sudeste 26 Sudeste 0.8 -- -- 82
2021-01-13 13:00:00 1.2 18 Sudeste 33 Sudeste 0 -- -- 85
2021-01-13 12:00:00 0.4 28 Sudeste 36 Sudeste 0 -- -- 86
2021-01-13 11:00:00 -1.3 23 Sudeste 33 Sudeste 0 -- -- 92
2021-01-13 10:00:00 -1.8 30 Sudeste 38 Sudeste 0 -- -- 95
2021-01-13 09:00:00 -2.6 25 Sudeste 37 Sudeste 0 -- -- 96
2021-01-13 08:00:00 -3.6 25 Sudeste 34 Sudeste 0 -- -- 98
2021-01-13 07:00:00 -3.9 19 Sudeste 27 Sudeste 0 -- -- 98
2021-01-13 06:00:00 -5.2 11 Sudeste 17 Sudeste 0 -- -- 96
2021-01-13 05:00:00 -4.7 10 Sudeste 18 Sudeste 0 -- -- 96
2021-01-13 04:00:00 -4.1 11 Sudeste 32 Sudeste 0 -- -- 96
2021-01-13 03:00:00 -3 15 Sudeste 26 Sudeste 0 -- -- 97
2021-01-13 02:00:00 -3.4 18 Sudeste 30 Sudeste 0 -- -- 95
2021-01-13 01:00:00 -3 16 Sudeste 28 Sudeste 0 -- -- 95
2021-01-13 00:00:00 -2.8 17 Sudeste 28 Sudeste 0 -- -- 92
2021-01-12 23:00:00 -3.7 2 Sudeste 11 Sudeste 0 -- -- 88
2021-01-12 22:00:00 -3.2 6 Sudeste 12 Sudeste 0 -- -- 90
2021-01-12 21:00:00 -2.6 0 Calma 8 Norte 0 -- -- 90
2021-01-12 20:00:00 -1.5 4 Noroeste 7 Noroeste 0 -- -- 86
2021-01-12 19:00:00 -0.2 6 Noroeste 13 Noroeste 0 -- -- 80
2021-01-12 18:00:00 4 0 Calma 10 Sur 0.8 -- -- 57
2021-01-12 17:00:00 6.1 4 Noroeste 19 Noroeste 1.8 -- -- 54
2021-01-12 16:00:00 6.3 6 Nordeste 18 Nordeste 2 -- -- 41
2021-01-12 15:00:00 5.6 9 Norte 26 Norte 1.6 -- -- 54
2021-01-12 14:00:00 3.8 5 Noroeste 15 Norte 1 -- -- 64
2021-01-12 13:00:00 -1.4 5 Sudeste 16 Sudeste 0 -- -- 94
2021-01-12 12:00:00 -4.1 16 Sudeste 26 Sudeste 0 -- -- 99
2021-01-12 11:00:00 -4.7 22 Sudeste 33 Este 0 -- -- 98
2021-01-12 10:00:00 -6.2 15 Sudeste 23 Sudeste 0 -- -- 97
2021-01-12 09:00:00 -7.6 14 Sudeste 22 Sudeste 0 -- -- 94
2021-01-12 08:00:00 -7 15 Sudeste 21 Sudeste 0 -- -- 94
2021-01-12 07:00:00 -7 16 Sudeste 27 Sudeste 0 -- -- 93
2021-01-12 06:00:00 -7.5 15 Sudeste 24 Sudeste 0 -- -- 91
2021-01-12 05:00:00 -7 6 Sudeste 22 Este 0 -- -- 92
2021-01-12 04:00:00 -6.7 12 Sudeste 17 Sudeste 0 -- -- 93
2021-01-12 03:00:00 -6.9 10 Sudeste 17 Sudeste 0 -- -- 89
2021-01-12 02:00:00 -5.7 12 Sur 33 Sudeste 0 -- -- 87
2021-01-12 01:00:00 -5.1 18 Sudeste 30 Sudeste 0 -- -- 88
2021-01-12 00:00:00 -4.6 19 Sudeste 36 Sudeste 0 -- -- 86
2021-01-11 23:00:00 -4.1 25 Sudeste 42 Sudeste 0 -- -- 83
2021-01-11 22:00:00 -3.9 23 Sudeste 42 Sudeste 0 -- -- 82
2021-01-11 21:00:00 -3.4 28 Sudeste 39 Sudeste 0 -- -- 80
2021-01-11 20:00:00 -3.6 17 Este 27 Este 0 -- -- 80
2021-01-11 19:00:00 -3.5 13 Este 29 Este 0 -- -- 80
2021-01-11 18:00:00 -2.7 18 Este 32 Este 0 -- -- 78
2021-01-11 17:00:00 -1.8 16 Este 26 Este 0 -- -- 76
2021-01-11 16:00:00 -1.3 15 Sudeste 39 Nordeste 0 -- -- 73
2021-01-11 15:00:00 -0.9 24 Nordeste 40 Nordeste 0 -- -- 69
2021-01-11 14:00:00 -1.2 25 Este 47 Nordeste 0.2 -- -- 71
2021-01-11 13:00:00 -1.1 18 Nordeste 39 Nordeste 0.2 -- -- 73
2021-01-11 12:00:00 -1.4 21 Este 45 Nordeste 0.2 -- -- 72
2021-01-11 11:00:00 -1.9 17 Nordeste 47 Este 0 -- -- 76
2021-01-11 10:00:00 -2.5 18 Nordeste 59 Este 0 -- -- 80
2021-01-11 09:00:00 -3.4 17 Este 46 Sudeste 0 -- -- 83
2021-01-11 08:00:00 -3.5 12 Sudeste 59 Este 0 -- -- 84
2021-01-11 07:00:00 -3.6 13 Norte 57 Este 0 -- -- 84
2021-01-11 06:00:00 -3.3 19 Este 50 Sudeste 0 -- -- 82
2021-01-11 05:00:00 -3.4 8 Noroeste 64 Sudeste 0 -- -- 83
2021-01-11 04:00:00 -3.6 9 Nordeste 58 Sudeste 0 -- -- 83
2021-01-11 03:00:00 -3.5 27 Sudeste 71 Sudeste 0 -- -- 83
2021-01-11 02:00:00 -3.4 32 Sudeste 68 Sudeste 0 -- -- 84
2021-01-11 01:00:00 -3.4 22 Sudeste 62 Este 0 -- -- 86
2021-01-11 00:00:00 -3.4 33 Sudeste 71 Este 0 -- -- 83
2021-01-10 23:00:00 -3.5 31 Sudeste 74 Este 0 -- -- 86
2021-01-10 22:00:00 -3.7 32 Sudeste 69 Sudeste 0 -- -- 87
2021-01-10 21:00:00 -4.1 28 Este 64 Este 0 -- -- 87
2021-01-10 20:00:00 -4.1 18 Sudeste 44 Nordeste 0 -- -- 87
2021-01-10 19:00:00 -3.8 10 Este 36 Sudeste 0 -- -- 84
2021-01-10 18:00:00 -3.4 19 Nordeste 40 Nordeste 0 -- -- 84
2021-01-10 17:00:00 -3 7 Norte 27 Nordeste 0 -- -- 87
2021-01-10 16:00:00 -2.8 13 Nordeste 30 Nordeste 0 -- -- 86
2021-01-10 15:00:00 -2.8 9 Nordeste 28 Nordeste 0 -- -- 88
2021-01-10 14:00:00 -3.1 19 Nordeste 32 Nordeste 0 -- -- 88
2021-01-10 13:00:00 -2.9 17 Nordeste 34 Nordeste 0 -- -- 90
2021-01-10 12:00:00 -3.2 15 Nordeste 36 Este 0 -- -- 92
2021-01-10 11:00:00 -3 23 Nordeste 36 Este 0 -- -- 92
2021-01-10 10:00:00 -3.3 13 Este 30 Este 0 -- -- 94
2021-01-10 09:00:00 -3.3 12 Nordeste 33 Nordeste 0 -- -- 93
2021-01-10 08:00:00 -3.1 5 Nordeste 31 Nordeste 0 -- -- 89
2021-01-10 07:00:00 -3.7 10 Este 28 Sudeste 0 -- -- 91
2021-01-10 06:00:00 -3.9 18 Sudeste 35 Este 0 -- -- 94
2021-01-10 05:00:00 -4.2 17 Este 27 Este 0 -- -- 95
2021-01-10 04:00:00 -4.3 17 Este 29 Este 0 -- -- 94
2021-01-10 03:00:00 -4.4 13 Este 23 Este 0 -- -- 94
2021-01-10 02:00:00 -4.3 10 Este 22 Este 0 -- -- 93
2021-01-10 01:00:00 -4.6 6 Este 17 Nordeste 0 -- -- 94
2021-01-10 00:00:00 -4.9 5 Este 17 Sudeste 0 -- -- 95
2021-01-09 23:00:00 -5 18 Este 30 Este 0 -- -- 94
2021-01-09 22:00:00 -4.4 17 Este 29 Este 0 -- -- 93
2021-01-09 21:00:00 -5.2 19 Sudeste 29 Sudeste 0 -- -- 96
2021-01-09 20:00:00 -5.1 18 Este 32 Este 0 -- -- 95
2021-01-09 19:00:00 -5.3 18 Este 31 Este 0 -- -- 97
2021-01-09 18:00:00 -5.3 19 Este 32 Sudeste 0 -- -- 97
2021-01-09 17:00:00 -5.2 25 Este 35 Este 0 -- -- 97
2021-01-09 16:00:00 -5.2 22 Este 34 Sudeste 0 -- -- 96
2021-01-09 15:00:00 -5.6 20 Este 33 Este 0 -- -- 97
2021-01-09 14:00:00 -5.8 22 Sudeste 32 Este 0 -- -- 96
2021-01-09 13:00:00 -5.9 24 Este 32 Sudeste 0 -- -- 95
2021-01-09 12:00:00 -6 20 Este 30 Sudeste 0 -- -- 95
2021-01-09 11:00:00 -5.9 16 Este 29 Este 0 -- -- 95
2021-01-09 10:00:00 -5.6 15 Este 28 Este 0 -- -- 94
2021-01-09 09:00:00 -5.6 14 Este 30 Este 0 -- -- 95
2021-01-09 08:00:00 -5.5 19 Este 30 Este 0 -- -- 95
2021-01-09 07:00:00 -5.5 19 Este 32 Este 0 -- -- 96
2021-01-09 06:00:00 -5.5 17 Este 35 Este 0 -- -- 96
2021-01-09 05:00:00 -5.5 18 Este 31 Este 0 -- -- 95
2021-01-09 04:00:00 -5.4 15 Este 33 Sudeste 0 -- -- 96
2021-01-09 03:00:00 -5.2 15 Este 30 Sudeste 0 -- -- 95
2021-01-09 02:00:00 -5.1 14 Este 24 Este 0 -- -- 96
2021-01-09 01:00:00 -5.2 14 Este 24 Sudeste 0 -- -- 96
2021-01-09 00:00:00 -5.3 19 Sudeste 29 Sudeste 0 -- -- 95
2021-01-08 23:00:00 -5.2 10 Este 27 Este 0 -- -- 93
2021-01-08 22:00:00 -5 12 Este 31 Este 0 -- -- 89
2021-01-08 21:00:00 -4.9 12 Este 22 Sudeste 0 -- -- 87
2021-01-08 20:00:00 -5 9 Este 24 Este 0 -- -- 87
2021-01-08 19:00:00 -4.8 12 Este 24 Este 0 -- -- 86
2021-01-08 18:00:00 -4.5 15 Este 22 Este 0 -- -- 80
2021-01-08 17:00:00 -4.1 17 Este 30 Este 0 -- -- 78
2021-01-08 16:00:00 -3.8 21 Este 30 Este 0 -- -- 75
2021-01-08 15:00:00 -3.7 19 Este 31 Sudeste 0 -- -- 74
2021-01-08 14:00:00 -4.1 18 Sudeste 28 Sudeste 0 -- -- 77
2021-01-08 13:00:00 -4.4 18 Sudeste 30 Este 0 -- -- 77
2021-01-08 12:00:00 -6 14 Sudeste 21 Sudeste 0 -- -- 87
2021-01-08 11:00:00 -6.7 15 Sudeste 27 Sudeste 0 -- -- 89
2021-01-08 10:00:00 -7.8 19 Sudeste 27 Sudeste 0 -- -- 91
2021-01-08 09:00:00 -8.6 15 Sudeste 24 Este 0 -- -- 90
2021-01-08 08:00:00 -7.6 16 Este 26 Este 0 -- -- 91
2021-01-08 07:00:00 -7.6 21 Este 29 Sudeste 0 -- -- 91
2021-01-08 06:00:00 -7.4 22 Sudeste 32 Sudeste 0 -- -- 89
2021-01-08 05:00:00 -6.8 16 Este 28 Este 0 -- -- 88
2021-01-08 04:00:00 -6.5 17 Este 30 Este 0 -- -- 88
2021-01-08 03:00:00 -6.6 13 Este 23 Este 0 -- -- 88
2021-01-08 02:00:00 -6.2 12 Sudeste 22 Este 0 -- -- 91
2021-01-08 01:00:00 -6.8 6 Sudeste 17 Sudeste 0 -- -- 94
2021-01-08 00:00:00 -6.8 9 Sudeste 19 Este 0 -- -- 93
2021-01-07 23:00:00 -6.8 9 Este 26 Este 0 -- -- 92
2021-01-07 22:00:00 -5.6 15 Este 22 Este 0 -- -- 92
2021-01-07 21:00:00 -6.4 7 Sudeste 15 Este 0 -- -- 88
2021-01-07 20:00:00 -6 9 Este 11 Sudeste 0 -- -- 87
2021-01-07 19:00:00 -4.3 6 Este 9 Este 0 -- -- 81
2021-01-07 18:00:00 -3.7 8 Sudeste 12 Sudeste 0 -- -- 77
2021-01-07 17:00:00 -1.6 9 Sudeste 15 Sudeste 0 -- -- 68
2021-01-07 16:00:00 -1.2 12 Sudeste 24 Este 0 -- -- 69
2021-01-07 15:00:00 -1.4 15 Sudeste 25 Sudeste 0 -- -- 70
2021-01-07 14:00:00 -2.2 17 Sudeste 28 Sudeste 0 -- -- 75
2021-01-07 13:00:00 -3.5 16 Sudeste 22 Sudeste 0 -- -- 82
2021-01-07 12:00:00 -6.4 8 Sudeste 13 Sudeste 0 -- -- 90
2021-01-07 11:00:00 -7.2 8 Sudeste 14 Sudeste 0 -- -- 90
2021-01-07 10:00:00 -8.1 11 Este 15 Sudeste 0 -- -- 91
2021-01-07 09:00:00 -9.4 8 Sudeste 12 Sudeste 0 -- -- 93
2021-01-07 08:00:00 -9.8 7 Este 11 Sudeste 0 -- -- 94
2021-01-07 07:00:00 -10.1 6 Este 10 Sudeste 0 -- -- 94
2021-01-07 06:00:00 -10.5 7 Sudeste 11 Sudeste 0 -- -- 95
2021-01-07 05:00:00 -10.1 3 Sudeste 10 Este 0 -- -- 93
2021-01-07 04:00:00 -10.3 2 Sudeste 12 Sudeste 0 -- -- 95
2021-01-07 03:00:00 -10.7 2 Sudeste 5 Sudeste 0 -- -- 95
2021-01-07 02:00:00 -9.8 4 Este 7 Este 0 -- -- 96
2021-01-07 01:00:00 -10.1 0 Calma 2 Este 0 -- -- 95
2021-01-07 00:00:00 -9.7 0 Calma 2 Oeste 0 -- -- 94
2021-01-06 23:00:00 -8.9 0 Calma 3 Oeste 0 -- -- 94
2021-01-06 22:00:00 -7.7 0 Calma 4 Este 0 -- -- 92
2021-01-06 21:00:00 -6.7 0 Calma 3 Este 0 -- -- 92
2021-01-06 20:00:00 -5.7 0 Calma 4 Sudeste 0 -- -- 89
2021-01-06 19:00:00 -4.4 2 Este 5 Sudeste 0 -- -- 87
2021-01-06 18:00:00 -2.1 6 Este 12 Sudeste 0.2 -- -- 75
2021-01-06 17:00:00 -0.9 8 Sudeste 13 Sudeste 0.4 -- -- 70
2021-01-06 16:00:00 -0.4 6 Sudeste 9 Sudeste 1.2 -- -- 66
2021-01-06 15:00:00 -0.6 6 Sudeste 21 Sudeste 0.8 -- -- 70
2021-01-06 14:00:00 -1.1 12 Sudeste 17 Sudeste 1 -- -- 70
2021-01-06 13:00:00 -2.1 6 Sudeste 10 Sudeste 0 -- -- 80
2021-01-06 12:00:00 -4 0 Calma 4 Este 0 -- -- 97
2021-01-06 11:00:00 -6.9 0 Calma -- -- 0 -- -- 97
2021-01-06 10:00:00 -9.2 0 Calma -- -- 0 -- -- 97
2021-01-06 09:00:00 -10.8 0 Calma 3 Oeste 0 -- -- 96
2021-01-06 08:00:00 -10.5 0 Calma 2 Este 0 -- -- 96
2021-01-06 07:00:00 -10.4 0 Calma 3 Oeste 0 -- -- 96
2021-01-06 06:00:00 -9.5 0 Calma 10 Sudeste 0 -- -- 95
2021-01-06 05:00:00 -9.7 0 Calma 9 Este 0 -- -- 95
2021-01-06 04:00:00 -8.3 7 Sudeste 10 Este 0 -- -- 96
2021-01-06 03:00:00 -9.6 0 Calma 10 Este 0 -- -- 96
2021-01-06 02:00:00 -9.2 3 Sudeste 6 Sudeste 0 -- -- 97
2021-01-06 01:00:00 -9 0 Calma 5 Noroeste 0 -- -- 95
2021-01-06 00:00:00 -9.5 2 Oeste 6 Sudeste 0 -- -- 94
2021-01-05 23:00:00 -8.2 2 Nordeste 5 Sudeste 0 -- -- 94
2021-01-05 22:00:00 -7.1 3 Noroeste 5 Oeste 0 -- -- 96
2021-01-05 21:00:00 -6 0 Calma 6 Norte 0 -- -- 95
2021-01-05 20:00:00 -5.1 2 Este 5 Este 0 -- -- 93
2021-01-05 19:00:00 -3.5 2 Sudeste 6 Norte 0 -- -- 89
2021-01-05 18:00:00 -1.8 0 Calma 12 Oeste 0.6 -- -- 86
2021-01-05 17:00:00 -0.6 5 Oeste 12 Oeste 1.2 -- -- 82
2021-01-05 16:00:00 -0.3 8 Oeste 13 Oeste 1.8 -- -- 81
2021-01-05 15:00:00 -0.6 3 Norte 9 Noroeste 0 -- -- 86
2021-01-05 14:00:00 -0.9 3 Norte 8 Oeste 0.2 -- -- 89
2021-01-05 13:00:00 -2.2 6 Noroeste 10 Oeste 0 -- -- 92
2021-01-05 12:00:00 -3.3 2 Oeste 13 Oeste 0 -- -- 94
2021-01-05 11:00:00 -3.8 3 Noroeste 6 Noroeste 0 -- -- 97
2021-01-05 10:00:00 -5.2 3 Oeste 6 Noroeste 0 -- -- 97
2021-01-05 09:00:00 -5.8 3 Norte 5 Norte 0 -- -- 98
2021-01-05 08:00:00 -6.3 0 Calma 4 Sudeste 0 -- -- 96
2021-01-05 07:00:00 -6.5 0 Calma 5 Sudoeste 0 -- -- 98
2021-01-05 06:00:00 -7.7 0 Calma 6 Noroeste 0 -- -- 97
2021-01-05 05:00:00 -7.7 0 Calma 6 Norte 0 -- -- 94
2021-01-05 04:00:00 -8.9 5 Noroeste 8 Noroeste 0 -- -- 96
2021-01-05 03:00:00 -8.3 2 Norte 6 Norte 0 -- -- 95
2021-01-05 02:00:00 -7.5 0 Calma 10 Norte 0 -- -- 93
2021-01-05 01:00:00 -6.6 7 Norte 10 Norte 0 -- -- 95
2021-01-05 00:00:00 -5.7 0 Calma 8 Norte 0 -- -- 94
2021-01-04 23:00:00 -5.5 3 Noroeste 12 Este 0 -- -- 93
2021-01-04 22:00:00 -4.6 0 Calma 6 Nordeste 0 -- -- 94
2021-01-04 21:00:00 -4.1 0 Calma 9 Sudoeste 0 -- -- 96
2021-01-04 20:00:00 -3.7 3 Sudoeste 8 Oeste 0 -- -- 97
2021-01-04 19:00:00 -3.3 5 Oeste 8 Oeste 0 -- -- 96
2021-01-04 18:00:00 -2.8 3 Oeste 18 Oeste 0 -- -- 94
2021-01-04 17:00:00 -2.4 11 Noroeste 23 Oeste 0 -- -- 95
2021-01-04 16:00:00 -2.2 14 Noroeste 21 Oeste 0 -- -- 97
2021-01-04 15:00:00 -2.6 14 Noroeste 30 Oeste 0 -- -- 96
2021-01-04 14:00:00 -2.8 11 Oeste 25 Oeste 0 -- -- 97
2021-01-04 13:00:00 -2.9 16 Oeste 30 Oeste 0 -- -- 98
2021-01-04 12:00:00 -3.9 17 Oeste 28 Noroeste 0 -- -- 99
2021-01-04 11:00:00 -4 17 Oeste 25 Noroeste 0 -- -- 99
2021-01-04 10:00:00 -4.2 14 Oeste 23 Oeste 0 -- -- 99
2021-01-04 09:00:00 -4.3 15 Oeste 24 Oeste 0 -- -- 98
2021-01-04 08:00:00 -4.2 17 Oeste 25 Noroeste 0 -- -- 98
2021-01-04 07:00:00 -4.1 15 Oeste 22 Oeste 0 -- -- 98
2021-01-04 06:00:00 -4.4 12 Noroeste 19 Oeste 0 -- -- 98
2021-01-04 05:00:00 -4.3 13 Noroeste 22 Oeste 0 -- -- 98
2021-01-04 04:00:00 -4.1 9 Noroeste 18 Oeste 0 -- -- 98
2021-01-04 03:00:00 -3.5 9 Oeste 17 Oeste 0 -- -- 99
2021-01-04 02:00:00 -3 12 Oeste 18 Oeste 0 -- -- 99
2021-01-04 01:00:00 -3 7 Noroeste 14 Oeste 0 -- -- 99
2021-01-04 00:00:00 -2.6 8 Noroeste 14 Oeste 0 -- -- 100
2021-01-03 23:00:00 -2.3 12 Oeste 22 Oeste 0 -- -- 100
2021-01-03 22:00:00 -2 15 Noroeste 25 Oeste 0 -- -- 100
2021-01-03 21:00:00 -2.2 17 Noroeste 34 Noroeste 0 -- -- 100
2021-01-03 20:00:00 -2.1 22 Oeste 37 Oeste 0 -- -- 99
2021-01-03 19:00:00 -1.9 13 Noroeste 19 Noroeste 0 -- -- 99
2021-01-03 18:00:00 -2 8 Noroeste 16 Noroeste 0 -- -- 98
2021-01-03 17:00:00 -2.4 7 Norte 13 Noroeste 0 -- -- 98
2021-01-03 16:00:00 -2.5 9 Noroeste 17 Oeste 0 -- -- 98
2021-01-03 15:00:00 -2.7 14 Oeste 27 Oeste 0 -- -- 97
2021-01-03 14:00:00 -2.6 18 Oeste 28 Oeste 0 -- -- 96
2021-01-03 13:00:00 -2.4 18 Noroeste 31 Oeste 0 -- -- 94
2021-01-03 12:00:00 -1.9 21 Noroeste 29 Oeste 0 -- -- 93
2021-01-03 11:00:00 -2.9 3 Oeste 9 Oeste 0 -- -- 97
2021-01-03 10:00:00 -3.6 11 Noroeste 19 Noroeste 0 -- -- 98
2021-01-03 09:00:00 -3.6 10 Noroeste 19 Noroeste 0 -- -- 98
2021-01-03 08:00:00 -3.6 2 Noroeste 5 Noroeste 0 -- -- 98
2021-01-03 07:00:00 -3.5 3 Oeste 6 Oeste 0 -- -- 97
2021-01-03 06:00:00 -3.2 2 Sudoeste 13 Oeste 0 -- -- 98
2021-01-03 05:00:00 -3 7 Oeste 17 Noroeste 0 -- -- 97
2021-01-03 04:00:00 -3 10 Oeste 21 Noroeste 0 -- -- 96
2021-01-03 03:00:00 -2.7 10 Oeste 19 Noroeste 0 -- -- 92
2021-01-03 02:00:00 -2.7 8 Oeste 14 Nordeste 0 -- -- 92
2021-01-03 01:00:00 -2.8 3 Sudoeste 16 Norte 0 -- -- 92
2021-01-03 00:00:00 -2.3 6 Norte 15 Norte 0 -- -- 86
2021-01-02 23:00:00 -2.4 3 Nordeste 22 Nordeste 0 -- -- 84
2021-01-02 22:00:00 -2.4 7 Sudoeste 53 Nordeste 0 -- -- 79
2021-01-02 21:00:00 -2.7 10 Norte 45 Nordeste 0 -- -- 78
2021-01-02 20:00:00 -3 12 Norte 32 Norte 0 -- -- 77
2021-01-02 19:00:00 -3.4 21 Sudoeste 48 Este 0 -- -- 75
2021-01-02 18:00:00 -3 12 Sudoeste 38 Sudoeste 0 -- -- 77
2021-01-02 17:00:00 -2.8 13 Sudoeste 52 Norte 0 -- -- 79
2021-01-02 16:00:00 -2.1 19 Norte 49 Norte 0 -- -- 79
2021-01-02 15:00:00 -2.3 27 Norte 51 Norte 0 -- -- 84
2021-01-02 14:00:00 -2.2 21 Nordeste 51 Norte 0 -- -- 83